Terminal Aerodrome Forecast
Issued by NWS

Home | Current Version | Previous Version | Text Only | Print | Product List | Glossary On
Versions: 1 2 3 4 5 6 7 8 9 10 11 12 13 14 15 16 17 18 19
000
FTAK31 PANC 261153 AAA
TAFACD
TAF AMD
PACD 261153Z 2612/2712 14010KT P6SM -SHRA FEW007 SCT015 OVC070
      TEMPO 2612/2615 BKN015 OVC070
     FM261700 33012KT P6SM VCSH SCT015 BKN025 OVC060
     FM270600 31010KT P6SM SCT015 OVC025=

USA.gov is the U.S. government's official web portal to all federal, state and local government web resources and services.